sensor_id;sensor_type;location;lat;lon;timestamp;temperature;humidity
61912;DHT22;49973;52.084;5.412;2022-11-13T00:00:49;5.30;99.90
61912;DHT22;49973;52.084;5.412;2022-11-13T00:03:37;5.30;99.90
61912;DHT22;49973;52.084;5.412;2022-11-13T00:06:24;5.30;99.90
61912;DHT22;49973;52.084;5.412;2022-11-13T00:09:12;5.20;99.90
61912;DHT22;49973;52.084;5.412;2022-11-13T00:12:00;5.20;99.90
61912;DHT22;49973;52.084;5.412;2022-11-13T00:14:47;5.20;99.90
61912;DHT22;49973;52.084;5.412;2022-11-13T00:17:34;5.20;99.90
61912;DHT22;49973;52.084;5.412;2022-11-13T00:20:22;5.10;99.90
61912;DHT22;49973;52.084;5.412;2022-11-13T00:23:09;5.10;99.90
61912;DHT22;49973;52.084;5.412;2022-11-13T00:26:02;5.20;99.90
61912;DHT22;49973;52.084;5.412;2022-11-13T00:28:53;5.10;99.90
61912;DHT22;49973;52.084;5.412;2022-11-13T00:31:40;5.10;99.90
61912;DHT22;49973;52.084;5.412;2022-11-13T00:34:27;5.10;99.90
61912;DHT22;49973;52.084;5.412;2022-11-13T00:37:34;5.10;99.90
61912;DHT22;49973;52.084;5.412;2022-11-13T00:40:21;5.10;99.90
61912;DHT22;49973;52.084;5.412;2022-11-13T00:43:09;5.10;99.90
61912;DHT22;49973;52.084;5.412;2022-11-13T00:45:57;5.10;99.90
61912;DHT22;49973;52.084;5.412;2022-11-13T00:48:44;5.00;99.90
61912;DHT22;49973;52.084;5.412;2022-11-13T00:51:32;5.00;99.90
61912;DHT22;49973;52.084;5.412;2022-11-13T00:54:19;5.00;99.90
61912;DHT22;49973;52.084;5.412;2022-11-13T00:57:06;5.00;99.90
61912;DHT22;49973;52.084;5.412;2022-11-13T00:59:53;4.90;99.90
61912;DHT22;49973;52.084;5.412;2022-11-13T01:02:41;4.90;99.90
61912;DHT22;49973;52.084;5.412;2022-11-13T01:05:28;4.90;99.90
61912;DHT22;49973;52.084;5.412;2022-11-13T01:08:15;4.90;99.90
61912;DHT22;49973;52.084;5.412;2022-11-13T01:11:07;4.90;99.90
61912;DHT22;49973;52.084;5.412;2022-11-13T01:13:55;4.90;99.90
61912;DHT22;49973;52.084;5.412;2022-11-13T01:16:42;4.80;99.90
61912;DHT22;49973;52.084;5.412;2022-11-13T01:19:30;4.80;99.90
61912;DHT22;49973;52.084;5.412;2022-11-13T01:22:18;4.80;99.90
61912;DHT22;49973;52.084;5.412;2022-11-13T01:25:05;4.80;99.90
61912;DHT22;49973;52.084;5.412;2022-11-13T01:27:53;4.80;99.90
61912;DHT22;49973;52.084;5.412;2022-11-13T01:30:40;4.80;99.90
61912;DHT22;49973;52.084;5.412;2022-11-13T01:33:28;4.80;99.90
61912;DHT22;49973;52.084;5.412;2022-11-13T01:36:17;4.80;99.90
61912;DHT22;49973;52.084;5.412;2022-11-13T01:39:05;4.80;99.90
61912;DHT22;49973;52.084;5.412;2022-11-13T01:41:52;4.80;99.90
61912;DHT22;49973;52.084;5.412;2022-11-13T01:44:50;4.80;99.90
61912;DHT22;49973;52.084;5.412;2022-11-13T01:47:37;4.80;99.90
61912;DHT22;49973;52.084;5.412;2022-11-13T01:50:25;4.70;99.90
61912;DHT22;49973;52.084;5.412;2022-11-13T01:53:13;4.70;99.90
61912;DHT22;49973;52.084;5.412;2022-11-13T01:56:00;4.70;99.90
61912;DHT22;49973;52.084;5.412;2022-11-13T01:58:52;4.60;99.90
61912;DHT22;49973;52.084;5.412;2022-11-13T02:01:40;4.60;99.90
61912;DHT22;49973;52.084;5.412;2022-11-13T02:04:27;4.50;99.90
61912;DHT22;49973;52.084;5.412;2022-11-13T02:07:17;4.50;99.90
61912;DHT22;49973;52.084;5.412;2022-11-13T02:10:07;4.50;99.90
61912;DHT22;49973;52.084;5.412;2022-11-13T02:12:55;4.40;99.90
61912;DHT22;49973;52.084;5.412;2022-11-13T02:15:42;4.40;99.90
61912;DHT22;49973;52.084;5.412;2022-11-13T02:18:31;4.40;99.90
61912;DHT22;49973;52.084;5.412;2022-11-13T02:21:31;4.30;99.90
61912;DHT22;49973;52.084;5.412;2022-11-13T02:24:25;4.30;99.90
61912;DHT22;49973;52.084;5.412;2022-11-13T02:27:19;4.30;99.90
61912;DHT22;49973;52.084;5.412;2022-11-13T02:30:15;4.20;99.90
61912;DHT22;49973;52.084;5.412;2022-11-13T02:33:21;4.20;99.90
61912;DHT22;49973;52.084;5.412;2022-11-13T02:36:09;4.20;99.90
61912;DHT22;49973;52.084;5.412;2022-11-13T02:39:01;4.20;99.90
61912;DHT22;49973;52.084;5.412;2022-11-13T02:41:50;4.10;99.90
61912;DHT22;49973;52.084;5.412;2022-11-13T02:44:38;4.10;99.90
61912;DHT22;49973;52.084;5.412;2022-11-13T02:47:25;4.10;99.90
61912;DHT22;49973;52.084;5.412;2022-11-13T02:50:12;4.10;99.90
61912;DHT22;49973;52.084;5.412;2022-11-13T02:52:59;4.10;99.90
61912;DHT22;49973;52.084;5.412;2022-11-13T02:55:46;4.10;99.90
61912;DHT22;49973;52.084;5.412;2022-11-13T02:58:35;4.10;99.90
61912;DHT22;49973;52.084;5.412;2022-11-13T03:01:22;4.20;99.90
61912;DHT22;49973;52.084;5.412;2022-11-13T03:04:10;4.00;99.90
61912;DHT22;49973;52.084;5.412;2022-11-13T03:06:57;4.00;99.90
61912;DHT22;49973;52.084;5.412;2022-11-13T03:09:44;4.00;99.90
61912;DHT22;49973;52.084;5.412;2022-11-13T03:12:31;4.00;99.90
61912;DHT22;49973;52.084;5.412;2022-11-13T03:15:20;4.00;99.90
61912;DHT22;49973;52.084;5.412;2022-11-13T03:18:08;4.00;99.90
61912;DHT22;49973;52.084;5.412;2022-11-13T03:20:56;4.00;99.90
61912;DHT22;49973;52.084;5.412;2022-11-13T03:23:44;3.90;99.90
61912;DHT22;49973;52.084;5.412;2022-11-13T03:26:31;3.90;99.90
61912;DHT22;49973;52.084;5.412;2022-11-13T03:29:18;4.00;99.90
61912;DHT22;49973;52.084;5.412;2022-11-13T03:32:06;3.90;99.90
61912;DHT22;49973;52.084;5.412;2022-11-13T03:34:54;3.90;99.90
61912;DHT22;49973;52.084;5.412;2022-11-13T03:37:41;3.90;99.90
61912;DHT22;49973;52.084;5.412;2022-11-13T03:40:27;3.90;99.90
61912;DHT22;49973;52.084;5.412;2022-11-13T03:43:15;3.90;99.90
61912;DHT22;49973;52.084;5.412;2022-11-13T03:46:02;3.90;99.90
61912;DHT22;49973;52.084;5.412;2022-11-13T03:48:50;3.90;99.90
61912;DHT22;49973;52.084;5.412;2022-11-13T03:51:38;3.90;99.90
61912;DHT22;49973;52.084;5.412;2022-11-13T03:54:25;3.90;99.90
61912;DHT22;49973;52.084;5.412;2022-11-13T03:57:12;3.80;99.90
61912;DHT22;49973;52.084;5.412;2022-11-13T03:59:59;3.90;99.90
61912;DHT22;49973;52.084;5.412;2022-11-13T04:02:46;3.80;99.90
61912;DHT22;49973;52.084;5.412;2022-11-13T04:05:34;3.80;99.90
61912;DHT22;49973;52.084;5.412;2022-11-13T04:08:21;3.90;99.90
61912;DHT22;49973;52.084;5.412;2022-11-13T04:11:10;3.80;99.90
61912;DHT22;49973;52.084;5.412;2022-11-13T04:13:57;3.80;99.90
61912;DHT22;49973;52.084;5.412;2022-11-13T04:16:44;3.80;99.90
61912;DHT22;49973;52.084;5.412;2022-11-13T04:19:30;3.80;99.90
61912;DHT22;49973;52.084;5.412;2022-11-13T04:22:19;3.80;99.90
61912;DHT22;49973;52.084;5.412;2022-11-13T04:25:06;3.80;99.90
61912;DHT22;49973;52.084;5.412;2022-11-13T04:27:54;3.80;99.90
61912;DHT22;49973;52.084;5.412;2022-11-13T04:30:41;3.80;99.90
61912;DHT22;49973;52.084;5.412;2022-11-13T04:33:28;3.80;99.90
61912;DHT22;49973;52.084;5.412;2022-11-13T04:36:16;3.80;99.90
61912;DHT22;49973;52.084;5.412;2022-11-13T04:39:04;3.80;99.90
61912;DHT22;49973;52.084;5.412;2022-11-13T04:41:51;3.90;99.90
61912;DHT22;49973;52.084;5.412;2022-11-13T04:44:56;3.80;99.90
61912;DHT22;49973;52.084;5.412;2022-11-13T04:47:43;3.80;99.90
61912;DHT22;49973;52.084;5.412;2022-11-13T04:50:31;3.80;99.90
61912;DHT22;49973;52.084;5.412;2022-11-13T04:53:18;3.80;99.90
61912;DHT22;49973;52.084;5.412;2022-11-13T04:56:07;3.80;99.90
61912;DHT22;49973;52.084;5.412;2022-11-13T04:58:54;3.80;99.90
61912;DHT22;49973;52.084;5.412;2022-11-13T05:01:41;3.70;99.90
61912;DHT22;49973;52.084;5.412;2022-11-13T05:04:29;3.70;99.90
61912;DHT22;49973;52.084;5.412;2022-11-13T05:07:16;3.70;99.90
61912;DHT22;49973;52.084;5.412;2022-11-13T05:10:04;3.60;99.90
61912;DHT22;49973;52.084;5.412;2022-11-13T05:12:56;3.60;99.90
61912;DHT22;49973;52.084;5.412;2022-11-13T05:15:43;3.60;99.90
61912;DHT22;49973;52.084;5.412;2022-11-13T05:18:31;3.60;99.90
61912;DHT22;49973;52.084;5.412;2022-11-13T05:21:18;3.60;99.90
61912;DHT22;49973;52.084;5.412;2022-11-13T05:24:08;3.50;99.90
61912;DHT22;49973;52.084;5.412;2022-11-13T05:26:55;3.50;99.90
61912;DHT22;49973;52.084;5.412;2022-11-13T05:29:44;3.50;99.90
61912;DHT22;49973;52.084;5.412;2022-11-13T05:32:31;3.50;99.90
61912;DHT22;49973;52.084;5.412;2022-11-13T05:35:18;3.60;99.90
61912;DHT22;49973;52.084;5.412;2022-11-13T05:38:06;3.60;99.90
61912;DHT22;49973;52.084;5.412;2022-11-13T05:40:53;3.60;99.90
61912;DHT22;49973;52.084;5.412;2022-11-13T05:43:40;3.60;99.90
61912;DHT22;49973;52.084;5.412;2022-11-13T05:46:29;3.70;99.90
61912;DHT22;49973;52.084;5.412;2022-11-13T05:49:17;3.70;99.90
61912;DHT22;49973;52.084;5.412;2022-11-13T05:52:04;3.70;99.90
61912;DHT22;49973;52.084;5.412;2022-11-13T05:54:51;3.80;99.90
61912;DHT22;49973;52.084;5.412;2022-11-13T05:57:38;3.80;99.90
61912;DHT22;49973;52.084;5.412;2022-11-13T06:00:26;3.80;99.90
61912;DHT22;49973;52.084;5.412;2022-11-13T06:03:15;3.80;99.90
61912;DHT22;49973;52.084;5.412;2022-11-13T06:06:02;3.80;99.90
61912;DHT22;49973;52.084;5.412;2022-11-13T06:08:51;3.80;99.90
61912;DHT22;49973;52.084;5.412;2022-11-13T06:11:39;3.80;99.90
61912;DHT22;49973;52.084;5.412;2022-11-13T06:14:26;3.80;99.90
61912;DHT22;49973;52.084;5.412;2022-11-13T06:17:13;3.80;99.90
61912;DHT22;49973;52.084;5.412;2022-11-13T06:20:02;3.70;99.90
61912;DHT22;49973;52.084;5.412;2022-11-13T06:22:49;3.70;99.90
61912;DHT22;49973;52.084;5.412;2022-11-13T06:25:36;3.70;99.90
61912;DHT22;49973;52.084;5.412;2022-11-13T06:28:23;3.60;99.90
61912;DHT22;49973;52.084;5.412;2022-11-13T06:31:13;3.60;99.90
61912;DHT22;49973;52.084;5.412;2022-11-13T06:34:01;3.60;99.90
61912;DHT22;49973;52.084;5.412;2022-11-13T06:36:49;3.50;99.90
61912;DHT22;49973;52.084;5.412;2022-11-13T06:39:36;3.50;99.90
61912;DHT22;49973;52.084;5.412;2022-11-13T06:42:23;3.40;99.90
61912;DHT22;49973;52.084;5.412;2022-11-13T06:45:10;3.40;99.90
61912;DHT22;49973;52.084;5.412;2022-11-13T06:47:57;3.40;99.90
61912;DHT22;49973;52.084;5.412;2022-11-13T06:50:44;3.40;99.90
61912;DHT22;49973;52.084;5.412;2022-11-13T06:53:35;3.30;99.90
61912;DHT22;49973;52.084;5.412;2022-11-13T06:56:22;3.30;99.90
61912;DHT22;49973;52.084;5.412;2022-11-13T06:59:09;3.30;99.90
61912;DHT22;49973;52.084;5.412;2022-11-13T07:01:56;3.20;99.90
61912;DHT22;49973;52.084;5.412;2022-11-13T07:04:43;3.20;99.90
61912;DHT22;49973;52.084;5.412;2022-11-13T07:07:30;3.20;99.90
61912;DHT22;49973;52.084;5.412;2022-11-13T07:10:19;3.20;99.90
61912;DHT22;49973;52.084;5.412;2022-11-13T07:13:06;3.20;99.90
61912;DHT22;49973;52.084;5.412;2022-11-13T07:15:53;3.20;99.90
61912;DHT22;49973;52.084;5.412;2022-11-13T07:18:40;3.10;99.90
61912;DHT22;49973;52.084;5.412;2022-11-13T07:21:27;3.10;99.90
61912;DHT22;49973;52.084;5.412;2022-11-13T07:24:14;3.10;99.90
61912;DHT22;49973;52.084;5.412;2022-11-13T07:27:03;3.20;99.90
61912;DHT22;49973;52.084;5.412;2022-11-13T07:29:50;3.20;99.90
61912;DHT22;49973;52.084;5.412;2022-11-13T07:32:37;3.20;99.90
61912;DHT22;49973;52.084;5.412;2022-11-13T07:35:24;3.20;99.90
61912;DHT22;49973;52.084;5.412;2022-11-13T07:38:12;3.20;99.90
61912;DHT22;49973;52.084;5.412;2022-11-13T07:41:00;3.30;99.90
61912;DHT22;49973;52.084;5.412;2022-11-13T07:43:48;3.30;99.90
61912;DHT22;49973;52.084;5.412;2022-11-13T07:46:35;3.30;99.90
61912;DHT22;49973;52.084;5.412;2022-11-13T07:49:22;3.30;99.90
61912;DHT22;49973;52.084;5.412;2022-11-13T07:52:09;3.40;99.90
61912;DHT22;49973;52.084;5.412;2022-11-13T07:54:56;3.40;99.90
61912;DHT22;49973;52.084;5.412;2022-11-13T07:57:45;3.50;99.90
61912;DHT22;49973;52.084;5.412;2022-11-13T08:00:34;3.50;99.90
61912;DHT22;49973;52.084;5.412;2022-11-13T08:03:21;3.60;99.90
61912;DHT22;49973;52.084;5.412;2022-11-13T08:06:08;3.60;99.90
61912;DHT22;49973;52.084;5.412;2022-11-13T08:08:56;3.70;99.90
61912;DHT22;49973;52.084;5.412;2022-11-13T08:11:45;3.70;99.90
61912;DHT22;49973;52.084;5.412;2022-11-13T08:14:34;3.80;99.90
61912;DHT22;49973;52.084;5.412;2022-11-13T08:17:27;3.90;99.90
61912;DHT22;49973;52.084;5.412;2022-11-13T08:20:14;4.00;99.90
61912;DHT22;49973;52.084;5.412;2022-11-13T08:23:02;4.00;99.90
61912;DHT22;49973;52.084;5.412;2022-11-13T08:25:50;4.10;99.90
61912;DHT22;49973;52.084;5.412;2022-11-13T08:28:38;4.10;99.90
61912;DHT22;49973;52.084;5.412;2022-11-13T08:31:25;4.20;99.90
61912;DHT22;49973;52.084;5.412;2022-11-13T08:34:13;4.30;99.90
61912;DHT22;49973;52.084;5.412;2022-11-13T08:37:00;4.40;99.90
61912;DHT22;49973;52.084;5.412;2022-11-13T08:39:47;4.40;99.90
61912;DHT22;49973;52.084;5.412;2022-11-13T08:42:33;4.50;99.90
61912;DHT22;49973;52.084;5.412;2022-11-13T08:45:20;4.60;99.90
61912;DHT22;49973;52.084;5.412;2022-11-13T08:48:08;4.70;99.90
61912;DHT22;49973;52.084;5.412;2022-11-13T08:50:57;4.80;99.90
61912;DHT22;49973;52.084;5.412;2022-11-13T08:53:44;4.90;99.90
61912;DHT22;49973;52.084;5.412;2022-11-13T08:56:31;5.00;99.90
61912;DHT22;49973;52.084;5.412;2022-11-13T08:59:18;5.00;99.90
61912;DHT22;49973;52.084;5.412;2022-11-13T09:02:05;5.10;99.90
61912;DHT22;49973;52.084;5.412;2022-11-13T09:04:52;5.30;99.90
61912;DHT22;49973;52.084;5.412;2022-11-13T09:07:41;5.30;99.90
61912;DHT22;49973;52.084;5.412;2022-11-13T09:10:28;5.50;99.90
61912;DHT22;49973;52.084;5.412;2022-11-13T09:13:15;5.50;99.90
61912;DHT22;49973;52.084;5.412;2022-11-13T09:16:03;5.60;99.90
61912;DHT22;49973;52.084;5.412;2022-11-13T09:18:50;5.70;99.90
61912;DHT22;49973;52.084;5.412;2022-11-13T09:21:38;5.80;99.90
61912;DHT22;49973;52.084;5.412;2022-11-13T09:24:26;6.00;99.90
61912;DHT22;49973;52.084;5.412;2022-11-13T09:27:13;6.10;99.90
61912;DHT22;49973;52.084;5.412;2022-11-13T09:30:00;6.20;99.90
61912;DHT22;49973;52.084;5.412;2022-11-13T09:32:51;6.30;99.90
61912;DHT22;49973;52.084;5.412;2022-11-13T09:35:39;6.40;99.90
61912;DHT22;49973;52.084;5.412;2022-11-13T09:38:26;6.50;99.90
61912;DHT22;49973;52.084;5.412;2022-11-13T09:41:20;6.60;99.90
61912;DHT22;49973;52.084;5.412;2022-11-13T09:44:13;6.70;99.90
61912;DHT22;49973;52.084;5.412;2022-11-13T09:47:06;6.80;99.90
61912;DHT22;49973;52.084;5.412;2022-11-13T09:49:59;6.90;99.90
61912;DHT22;49973;52.084;5.412;2022-11-13T09:52:48;6.90;99.90
61912;DHT22;49973;52.084;5.412;2022-11-13T09:55:43;7.10;99.90
61912;DHT22;49973;52.084;5.412;2022-11-13T09:58:44;7.10;99.90
61912;DHT22;49973;52.084;5.412;2022-11-13T10:01:48;7.20;99.90
61912;DHT22;49973;52.084;5.412;2022-11-13T10:04:48;7.20;99.90
61912;DHT22;49973;52.084;5.412;2022-11-13T10:07:43;7.30;99.90
61912;DHT22;49973;52.084;5.412;2022-11-13T10:10:44;7.30;99.90
61912;DHT22;49973;52.084;5.412;2022-11-13T10:13:43;7.50;99.90
61912;DHT22;49973;52.084;5.412;2022-11-13T10:16:33;7.50;99.90
61912;DHT22;49973;52.084;5.412;2022-11-13T10:19:25;7.60;99.90
61912;DHT22;49973;52.084;5.412;2022-11-13T10:22:17;7.70;99.90
61912;DHT22;49973;52.084;5.412;2022-11-13T10:25:25;7.80;99.90
61912;DHT22;49973;52.084;5.412;2022-11-13T10:28:17;7.80;99.90
61912;DHT22;49973;52.084;5.412;2022-11-13T10:31:25;7.90;99.90
61912;DHT22;49973;52.084;5.412;2022-11-13T10:34:13;8.00;99.90
61912;DHT22;49973;52.084;5.412;2022-11-13T10:37:20;8.00;99.90
61912;DHT22;49973;52.084;5.412;2022-11-13T10:40:10;8.20;99.90
61912;DHT22;49973;52.084;5.412;2022-11-13T10:43:04;8.40;99.90
61912;DHT22;49973;52.084;5.412;2022-11-13T10:45:54;8.60;99.90
61912;DHT22;49973;52.084;5.412;2022-11-13T10:48:43;8.80;99.90
61912;DHT22;49973;52.084;5.412;2022-11-13T10:51:31;9.00;99.90
61912;DHT22;49973;52.084;5.412;2022-11-13T10:54:23;9.20;99.90
61912;DHT22;49973;52.084;5.412;2022-11-13T10:57:22;9.40;99.90
61912;DHT22;49973;52.084;5.412;2022-11-13T11:00:22;9.60;99.90
61912;DHT22;49973;52.084;5.412;2022-11-13T11:03:13;9.80;99.90
61912;DHT22;49973;52.084;5.412;2022-11-13T11:06:04;10.00;99.90
61912;DHT22;49973;52.084;5.412;2022-11-13T11:08:51;10.20;99.90
61912;DHT22;49973;52.084;5.412;2022-11-13T11:11:38;10.40;99.90
61912;DHT22;49973;52.084;5.412;2022-11-13T11:14:56;10.60;99.90
61912;DHT22;49973;52.084;5.412;2022-11-13T11:17:47;10.60;99.90
61912;DHT22;49973;52.084;5.412;2022-11-13T11:20:42;10.80;99.90
61912;DHT22;49973;52.084;5.412;2022-11-13T11:23:36;10.90;99.90
61912;DHT22;49973;52.084;5.412;2022-11-13T11:26:30;11.00;99.90
61912;DHT22;49973;52.084;5.412;2022-11-13T11:29:20;11.20;99.90
61912;DHT22;49973;52.084;5.412;2022-11-13T11:32:15;11.30;99.90
61912;DHT22;49973;52.084;5.412;2022-11-13T11:35:09;11.40;99.90
61912;DHT22;49973;52.084;5.412;2022-11-13T11:38:02;11.50;99.90
61912;DHT22;49973;52.084;5.412;2022-11-13T11:40:55;11.60;99.90
61912;DHT22;49973;52.084;5.412;2022-11-13T11:43:47;11.70;99.90
61912;DHT22;49973;52.084;5.412;2022-11-13T11:46:39;11.90;99.90
61912;DHT22;49973;52.084;5.412;2022-11-13T11:49:31;12.00;99.90
61912;DHT22;49973;52.084;5.412;2022-11-13T11:52:32;12.10;99.90
61912;DHT22;49973;52.084;5.412;2022-11-13T11:55:40;12.30;99.90
61912;DHT22;49973;52.084;5.412;2022-11-13T11:58:51;12.40;99.90
61912;DHT22;49973;52.084;5.412;2022-11-13T12:02:01;12.50;99.90
61912;DHT22;49973;52.084;5.412;2022-11-13T12:05:10;12.70;99.90
61912;DHT22;49973;52.084;5.412;2022-11-13T12:08:11;12.80;99.90
61912;DHT22;49973;52.084;5.412;2022-11-13T12:11:09;12.90;99.90
61912;DHT22;49973;52.084;5.412;2022-11-13T12:14:05;13.00;99.90
61912;DHT22;49973;52.084;5.412;2022-11-13T12:17:04;13.30;99.90
61912;DHT22;49973;52.084;5.412;2022-11-13T12:20:13;13.40;99.90
61912;DHT22;49973;52.084;5.412;2022-11-13T12:23:23;13.50;99.90
61912;DHT22;49973;52.084;5.412;2022-11-13T12:26:16;13.60;99.90
61912;DHT22;49973;52.084;5.412;2022-11-13T12:29:17;13.80;99.90
61912;DHT22;49973;52.084;5.412;2022-11-13T12:32:18;13.80;99.90
61912;DHT22;49973;52.084;5.412;2022-11-13T12:35:12;13.90;99.90
61912;DHT22;49973;52.084;5.412;2022-11-13T12:38:07;13.90;99.90
61912;DHT22;49973;52.084;5.412;2022-11-13T12:41:02;13.90;99.90
61912;DHT22;49973;52.084;5.412;2022-11-13T12:44:08;13.90;99.90
61912;DHT22;49973;52.084;5.412;2022-11-13T12:47:02;14.00;99.90
61912;DHT22;49973;52.084;5.412;2022-11-13T12:49:58;14.10;99.90
61912;DHT22;49973;52.084;5.412;2022-11-13T12:52:59;14.10;99.90
61912;DHT22;49973;52.084;5.412;2022-11-13T12:55:55;14.20;99.90
61912;DHT22;49973;52.084;5.412;2022-11-13T12:58:53;14.20;99.90
61912;DHT22;49973;52.084;5.412;2022-11-13T13:02:16;14.20;99.90
61912;DHT22;49973;52.084;5.412;2022-11-13T13:05:19;14.30;99.90
61912;DHT22;49973;52.084;5.412;2022-11-13T13:08:52;14.40;99.90
61912;DHT22;49973;52.084;5.412;2022-11-13T13:11:47;14.40;99.90
61912;DHT22;49973;52.084;5.412;2022-11-13T13:15:00;14.40;99.90
61912;DHT22;49973;52.084;5.412;2022-11-13T13:18:02;14.40;99.90
61912;DHT22;49973;52.084;5.412;2022-11-13T13:21:00;14.40;99.90
61912;DHT22;49973;52.084;5.412;2022-11-13T13:23:49;14.60;99.90
61912;DHT22;49973;52.084;5.412;2022-11-13T13:26:44;14.40;99.90
61912;DHT22;49973;52.084;5.412;2022-11-13T13:29:32;14.40;99.90
61912;DHT22;49973;52.084;5.412;2022-11-13T13:32:26;14.50;99.90
61912;DHT22;49973;52.084;5.412;2022-11-13T13:35:18;14.50;99.90
61912;DHT22;49973;52.084;5.412;2022-11-13T13:38:15;14.50;99.90
61912;DHT22;49973;52.084;5.412;2022-11-13T13:41:20;14.40;99.90
61912;DHT22;49973;52.084;5.412;2022-11-13T13:44:39;14.40;99.90
61912;DHT22;49973;52.084;5.412;2022-11-13T13:47:30;14.30;99.90
61912;DHT22;49973;52.084;5.412;2022-11-13T13:50:24;14.40;99.90
61912;DHT22;49973;52.084;5.412;2022-11-13T13:53:14;14.40;99.90
61912;DHT22;49973;52.084;5.412;2022-11-13T13:56:03;14.40;99.90
61912;DHT22;49973;52.084;5.412;2022-11-13T13:58:51;14.40;99.90
61912;DHT22;49973;52.084;5.412;2022-11-13T14:01:39;14.40;99.90
61912;DHT22;49973;52.084;5.412;2022-11-13T14:04:28;14.40;99.90
61912;DHT22;49973;52.084;5.412;2022-11-13T14:07:23;14.40;99.90
61912;DHT22;49973;52.084;5.412;2022-11-13T14:10:15;14.40;99.90
61912;DHT22;49973;52.084;5.412;2022-11-13T14:13:03;14.40;99.90
61912;DHT22;49973;52.084;5.412;2022-11-13T14:15:59;14.30;99.90
61912;DHT22;49973;52.084;5.412;2022-11-13T14:18:48;14.30;99.90
61912;DHT22;49973;52.084;5.412;2022-11-13T14:21:34;14.20;99.90
61912;DHT22;49973;52.084;5.412;2022-11-13T14:24:26;14.10;99.90
61912;DHT22;49973;52.084;5.412;2022-11-13T14:27:17;14.00;99.90
61912;DHT22;49973;52.084;5.412;2022-11-13T14:30:21;13.80;99.90
61912;DHT22;49973;52.084;5.412;2022-11-13T14:33:08;13.60;99.90
61912;DHT22;49973;52.084;5.412;2022-11-13T14:35:58;13.50;99.90
61912;DHT22;49973;52.084;5.412;2022-11-13T14:38:47;13.30;99.90
61912;DHT22;49973;52.084;5.412;2022-11-13T14:41:44;13.20;99.90
61912;DHT22;49973;52.084;5.412;2022-11-13T14:44:33;13.10;99.90
61912;DHT22;49973;52.084;5.412;2022-11-13T14:47:23;13.10;99.90
61912;DHT22;49973;52.084;5.412;2022-11-13T14:50:20;13.10;99.90
61912;DHT22;49973;52.084;5.412;2022-11-13T14:53:09;13.10;99.90
61912;DHT22;49973;52.084;5.412;2022-11-13T14:55:58;13.10;99.90
61912;DHT22;49973;52.084;5.412;2022-11-13T14:58:47;13.10;99.90
61912;DHT22;49973;52.084;5.412;2022-11-13T15:01:34;13.10;99.90
61912;DHT22;49973;52.084;5.412;2022-11-13T15:04:21;13.00;99.90
61912;DHT22;49973;52.084;5.412;2022-11-13T15:07:24;13.00;99.90
61912;DHT22;49973;52.084;5.412;2022-11-13T15:10:14;12.90;99.90
61912;DHT22;49973;52.084;5.412;2022-11-13T15:13:08;12.90;99.90
61912;DHT22;49973;52.084;5.412;2022-11-13T15:15:57;12.80;99.90
61912;DHT22;49973;52.084;5.412;2022-11-13T15:18:48;12.70;99.90
61912;DHT22;49973;52.084;5.412;2022-11-13T15:21:35;12.60;99.90
61912;DHT22;49973;52.084;5.412;2022-11-13T15:24:22;12.40;99.90
61912;DHT22;49973;52.084;5.412;2022-11-13T15:27:13;12.30;99.90
61912;DHT22;49973;52.084;5.412;2022-11-13T15:30:01;12.10;99.90
61912;DHT22;49973;52.084;5.412;2022-11-13T15:32:49;12.00;99.90
61912;DHT22;49973;52.084;5.412;2022-11-13T15:35:40;11.80;99.90
61912;DHT22;49973;52.084;5.412;2022-11-13T15:38:27;11.60;99.90
61912;DHT22;49973;52.084;5.412;2022-11-13T15:41:17;11.40;99.90
61912;DHT22;49973;52.084;5.412;2022-11-13T15:44:10;11.20;99.90
61912;DHT22;49973;52.084;5.412;2022-11-13T15:46:58;11.10;99.90
61912;DHT22;49973;52.084;5.412;2022-11-13T15:49:46;10.90;99.90
61912;DHT22;49973;52.084;5.412;2022-11-13T15:52:53;10.80;99.90
61912;DHT22;49973;52.084;5.412;2022-11-13T15:55:41;10.70;99.90
61912;DHT22;49973;52.084;5.412;2022-11-13T15:58:29;10.50;99.90
61912;DHT22;49973;52.084;5.412;2022-11-13T16:01:19;10.40;99.90
61912;DHT22;49973;52.084;5.412;2022-11-13T16:04:07;10.30;99.90
61912;DHT22;49973;52.084;5.412;2022-11-13T16:06:58;10.20;99.90
61912;DHT22;49973;52.084;5.412;2022-11-13T16:09:46;10.00;99.90
61912;DHT22;49973;52.084;5.412;2022-11-13T16:12:33;9.90;99.90
61912;DHT22;49973;52.084;5.412;2022-11-13T16:15:21;9.70;99.90
61912;DHT22;49973;52.084;5.412;2022-11-13T16:18:18;9.60;99.90
61912;DHT22;49973;52.084;5.412;2022-11-13T16:21:10;9.50;99.90
61912;DHT22;49973;52.084;5.412;2022-11-13T16:23:59;9.40;99.90
61912;DHT22;49973;52.084;5.412;2022-11-13T16:26:48;9.30;99.90
61912;DHT22;49973;52.084;5.412;2022-11-13T16:29:36;9.20;99.90
61912;DHT22;49973;52.084;5.412;2022-11-13T16:32:23;9.10;99.90
61912;DHT22;49973;52.084;5.412;2022-11-13T16:35:12;9.00;99.90
61912;DHT22;49973;52.084;5.412;2022-11-13T16:37:59;8.90;99.90
61912;DHT22;49973;52.084;5.412;2022-11-13T16:40:48;8.80;99.90
61912;DHT22;49973;52.084;5.412;2022-11-13T16:43:35;8.80;99.90
61912;DHT22;49973;52.084;5.412;2022-11-13T16:46:25;8.60;99.90
61912;DHT22;49973;52.084;5.412;2022-11-13T16:49:14;8.50;99.90
61912;DHT22;49973;52.084;5.412;2022-11-13T16:52:04;8.50;99.90
61912;DHT22;49973;52.084;5.412;2022-11-13T16:54:51;8.40;99.90
61912;DHT22;49973;52.084;5.412;2022-11-13T16:57:40;8.30;99.90
61912;DHT22;49973;52.084;5.412;2022-11-13T17:00:27;8.30;99.90
61912;DHT22;49973;52.084;5.412;2022-11-13T17:03:14;8.20;99.90
61912;DHT22;49973;52.084;5.412;2022-11-13T17:06:02;8.10;99.90
61912;DHT22;49973;52.084;5.412;2022-11-13T17:08:50;8.00;99.90
61912;DHT22;49973;52.084;5.412;2022-11-13T17:11:37;8.00;99.90
61912;DHT22;49973;52.084;5.412;2022-11-13T17:14:26;7.90;99.90
61912;DHT22;49973;52.084;5.412;2022-11-13T17:17:13;7.80;99.90
61912;DHT22;49973;52.084;5.412;2022-11-13T17:20:00;7.70;99.90
61912;DHT22;49973;52.084;5.412;2022-11-13T17:22:47;7.70;99.90
61912;DHT22;49973;52.084;5.412;2022-11-13T17:25:34;7.60;99.90
61912;DHT22;49973;52.084;5.412;2022-11-13T17:28:21;7.60;99.90
61912;DHT22;49973;52.084;5.412;2022-11-13T17:31:10;7.60;99.90
61912;DHT22;49973;52.084;5.412;2022-11-13T17:33:58;7.50;99.90
61912;DHT22;49973;52.084;5.412;2022-11-13T17:36:45;7.50;99.90
61912;DHT22;49973;52.084;5.412;2022-11-13T17:39:32;7.40;99.90
61912;DHT22;49973;52.084;5.412;2022-11-13T17:42:19;7.40;99.90
61912;DHT22;49973;52.084;5.412;2022-11-13T17:45:07;7.30;99.90
61912;DHT22;49973;52.084;5.412;2022-11-13T17:47:56;7.20;99.90
61912;DHT22;49973;52.084;5.412;2022-11-13T17:50:44;7.10;99.90
61912;DHT22;49973;52.084;5.412;2022-11-13T17:53:31;7.00;99.90
61912;DHT22;49973;52.084;5.412;2022-11-13T17:56:18;7.00;99.90
61912;DHT22;49973;52.084;5.412;2022-11-13T17:59:07;6.90;99.90
61912;DHT22;49973;52.084;5.412;2022-11-13T18:01:56;6.80;99.90
61912;DHT22;49973;52.084;5.412;2022-11-13T18:04:44;6.80;99.90
61912;DHT22;49973;52.084;5.412;2022-11-13T18:07:31;6.70;99.90
61912;DHT22;49973;52.084;5.412;2022-11-13T18:10:18;6.60;99.90